createdAt,value
2022-09-23T00:00:18.111Z,11.07
2022-09-23T00:03:45.483Z,10.96
2022-09-23T00:06:51.327Z,10.94
2022-09-23T00:09:56.884Z,10.94
2022-09-23T00:13:02.983Z,10.93
2022-09-23T00:16:09.893Z,10.96
2022-09-23T00:19:15.402Z,11.02
2022-09-23T00:22:20.659Z,11.05
2022-09-23T00:25:27.504Z,11.01
2022-09-23T00:28:33.062Z,10.96
2022-09-23T00:31:38.630Z,10.89
2022-09-23T00:34:48.035Z,10.84
2022-09-23T00:37:53.388Z,10.75
2022-09-23T00:40:59.517Z,10.72
2022-09-23T00:44:18.512Z,10.71
2022-09-23T00:47:26.260Z,10.61
2022-09-23T00:50:35.238Z,10.25
2022-09-23T00:53:40.918Z,9.97
2022-09-23T00:56:46.382Z,9.84
2022-09-23T00:59:52.526Z,9.54
2022-09-23T01:02:58.356Z,9.29
2022-09-23T01:06:03.556Z,9.32
2022-09-23T01:09:09.017Z,9.41
2022-09-23T01:12:26.431Z,9.48
2022-09-23T01:15:38.543Z,9.59
2022-09-23T01:18:47.691Z,9.66
2022-09-23T01:21:55.077Z,9.73
2022-09-23T01:25:10.789Z,9.79
2022-09-23T01:28:36.817Z,9.81
2022-09-23T01:31:45.536Z,9.84
2022-09-23T01:34:55.645Z,9.82
2022-09-23T01:38:10.221Z,9.75
2022-09-23T01:41:25.291Z,9.64
2022-09-23T01:44:33.438Z,9.53
2022-09-23T01:47:41.010Z,9.43
2022-09-23T01:50:59.471Z,9.46
2022-09-23T01:54:08.418Z,9.55
2022-09-23T01:57:18.331Z,9.63
2022-09-23T02:00:24.546Z,9.68
2022-09-23T02:03:32.631Z,9.79
2022-09-23T02:06:41.513Z,9.85
2022-09-23T02:09:50.131Z,9.89
2022-09-23T02:12:59.289Z,9.87
2022-09-23T02:16:06.423Z,9.89
2022-09-23T02:19:14.476Z,9.96
2022-09-23T02:22:21.904Z,9.98
2022-09-23T02:25:34.046Z,9.94
2022-09-23T02:28:43.280Z,9.87
2022-09-23T02:31:54.959Z,9.79
2022-09-23T02:35:04.793Z,9.81
2022-09-23T02:38:17.960Z,9.74
2022-09-23T02:41:27.738Z,9.65
2022-09-23T02:44:33.074Z,9.56
2022-09-23T02:47:40.752Z,9.53
2022-09-23T02:50:47.769Z,9.49
2022-09-23T02:53:56.327Z,9.46
2022-09-23T02:57:02.854Z,9.38
2022-09-23T03:00:09.077Z,9.27
2022-09-23T03:03:23.110Z,9.14
2022-09-23T03:06:30.970Z,9.08
2022-09-23T03:09:38.785Z,9.06
2022-09-23T03:12:53.001Z,9.04
2022-09-23T03:16:02.687Z,8.97
2022-09-23T03:19:16.609Z,8.90
2022-09-23T03:22:24.371Z,8.83
2022-09-23T03:25:33.240Z,8.76
2022-09-23T03:28:39.730Z,8.74
2022-09-23T03:31:46.024Z,8.74
2022-09-23T03:34:52.826Z,8.78
2022-09-23T03:38:02.721Z,8.82
2022-09-23T03:41:10.770Z,8.82
2022-09-23T03:44:17.357Z,8.78
2022-09-23T03:47:22.671Z,8.74
2022-09-23T03:50:28.010Z,8.71
2022-09-23T03:53:33.303Z,8.67
2022-09-23T03:56:38.667Z,8.64
2022-09-23T03:59:44.346Z,8.64
2022-09-23T04:02:50.235Z,8.64
2022-09-23T04:05:55.796Z,8.65
2022-09-23T04:09:01.703Z,8.63
2022-09-23T04:12:07.265Z,8.61
2022-09-23T04:15:13.117Z,8.60
2022-09-23T04:18:18.406Z,8.62
2022-09-23T04:21:23.609Z,8.71
2022-09-23T04:24:29.147Z,8.99
2022-09-23T04:27:37.608Z,9.11
2022-09-23T04:30:44.314Z,9.13
2022-09-23T04:33:49.535Z,9.14
2022-09-23T04:36:54.887Z,9.17
2022-09-23T04:40:00.081Z,9.20
2022-09-23T04:43:05.418Z,9.17
2022-09-23T04:46:11.442Z,9.16
2022-09-23T04:49:17.149Z,9.54
2022-09-23T04:52:22.556Z,9.83
2022-09-23T04:55:27.924Z,9.94
2022-09-23T04:58:34.248Z,10.06
2022-09-23T05:01:39.868Z,9.52
2022-09-23T05:04:45.291Z,8.15
2022-09-23T05:07:50.980Z,7.11
2022-09-23T05:10:59.246Z,6.67
2022-09-23T05:14:04.483Z,7.40
2022-09-23T05:17:09.893Z,8.36
2022-09-23T05:20:15.041Z,9.11
2022-09-23T05:23:20.377Z,9.70
2022-09-23T05:26:26.481Z,10.22
2022-09-23T05:29:31.587Z,10.66
2022-09-23T05:32:36.776Z,11.03
2022-09-23T05:35:47.332Z,11.36
2022-09-23T05:38:52.935Z,11.63
2022-09-23T05:42:00.153Z,11.83
2022-09-23T05:45:07.614Z,12.08
2022-09-23T05:48:12.944Z,12.38
2022-09-23T05:51:19.033Z,12.72
2022-09-23T05:54:24.471Z,13.02
2022-09-23T05:57:30.268Z,12.71
2022-09-23T06:00:35.514Z,11.43
2022-09-23T06:03:40.997Z,10.38
2022-09-23T06:06:46.151Z,9.68
2022-09-23T06:09:51.699Z,10.06
2022-09-23T06:12:57.085Z,10.66
2022-09-23T06:16:03.308Z,10.98
2022-09-23T06:19:09.982Z,11.23
2022-09-23T06:22:17.027Z,11.50
2022-09-23T06:25:23.148Z,11.87
2022-09-23T06:28:30.225Z,12.34
2022-09-23T06:31:35.334Z,12.65
2022-09-23T06:34:50.781Z,12.79
2022-09-23T06:37:58.112Z,12.90
2022-09-23T06:41:04.329Z,13.08
2022-09-23T06:44:09.626Z,13.26
2022-09-23T06:47:15.372Z,13.36
2022-09-23T06:50:20.448Z,13.40
2022-09-23T06:53:26.097Z,13.51
2022-09-23T06:56:34.872Z,13.65
2022-09-23T06:59:43.918Z,13.74
2022-09-23T07:02:49.266Z,13.96
2022-09-23T07:05:56.825Z,14.15
2022-09-23T07:09:03.388Z,14.29
2022-09-23T07:12:09.135Z,14.41
2022-09-23T07:15:15.432Z,14.57
2022-09-23T07:18:23.623Z,14.81
2022-09-23T07:21:28.733Z,14.98
2022-09-23T07:24:34.405Z,15.12
2022-09-23T07:27:40.002Z,15.24
2022-09-23T07:30:55.929Z,15.40
2022-09-23T07:34:03.891Z,15.58
2022-09-23T07:37:09.050Z,15.71
2022-09-23T07:40:14.369Z,15.86
2022-09-23T07:43:19.984Z,16.05
2022-09-23T07:46:26.049Z,16.21
2022-09-23T07:49:31.474Z,16.13
2022-09-23T07:52:38.039Z,15.40
2022-09-23T07:55:43.307Z,14.77
2022-09-23T07:59:04.502Z,14.34
2022-09-23T08:02:15.547Z,14.39
2022-09-23T08:05:20.909Z,15.25
2022-09-23T08:08:27.374Z,15.74
2022-09-23T08:11:33.046Z,16.02
2022-09-23T08:14:38.736Z,16.21
2022-09-23T08:17:44.042Z,16.28
2022-09-23T08:20:49.251Z,15.96
2022-09-23T08:23:54.485Z,15.30
2022-09-23T08:26:59.751Z,14.83
2022-09-23T08:30:05.344Z,15.08
2022-09-23T08:33:11.027Z,16.25
2022-09-23T08:36:16.305Z,17.07
2022-09-23T08:39:22.925Z,17.22
2022-09-23T08:42:32.378Z,16.54
2022-09-23T08:45:38.571Z,16.02
2022-09-23T08:48:45.611Z,16.60
2022-09-23T08:51:54.411Z,16.80
2022-09-23T08:54:59.730Z,16.22
2022-09-23T08:58:26.267Z,15.76
2022-09-23T09:01:35.701Z,15.41
2022-09-23T09:04:44.330Z,15.19
2022-09-23T09:07:50.476Z,15.57
2022-09-23T09:10:58.158Z,16.45
2022-09-23T09:14:06.937Z,16.91
2022-09-23T09:17:13.972Z,16.64
2022-09-23T09:20:23.345Z,16.30
2022-09-23T09:23:32.837Z,15.98
2022-09-23T09:26:39.714Z,15.96
2022-09-23T09:29:49.874Z,16.80
2022-09-23T09:32:59.264Z,17.71
2022-09-23T09:36:09.996Z,17.83
2022-09-23T09:39:16.371Z,17.43
2022-09-23T09:42:26.106Z,17.21
2022-09-23T09:45:38.593Z,17.07
2022-09-23T09:48:50.825Z,17.01
2022-09-23T09:52:09.896Z,17.69
2022-09-23T09:55:25.075Z,18.37
2022-09-23T09:58:34.196Z,18.01
2022-09-23T10:01:39.578Z,17.55
2022-09-23T10:04:44.939Z,17.29
2022-09-23T10:07:50.267Z,17.23
2022-09-23T10:11:01.165Z,17.19
2022-09-23T10:14:09.361Z,17.21
2022-09-23T10:17:16.838Z,17.24
2022-09-23T10:20:22.089Z,17.27
2022-09-23T10:23:29.107Z,17.35
2022-09-23T10:26:36.173Z,17.98
2022-09-23T10:29:43.150Z,18.83
2022-09-23T10:32:48.792Z,18.61
2022-09-23T10:35:57.353Z,18.27
2022-09-23T10:39:17.592Z,18.03
2022-09-23T10:42:46.142Z,17.95
2022-09-23T10:46:09.104Z,17.95
2022-09-23T10:49:31.131Z,17.96
2022-09-23T10:52:52.501Z,17.77
2022-09-23T10:56:13.008Z,17.49
2022-09-23T10:59:29.196Z,17.23
2022-09-23T11:02:47.385Z,17.09
2022-09-23T11:06:01.837Z,16.91
2022-09-23T11:09:16.525Z,16.80
2022-09-23T11:12:26.885Z,16.87
2022-09-23T11:15:42.238Z,16.91
2022-09-23T11:18:50.939Z,16.93
2022-09-23T11:22:02.158Z,16.98
2022-09-23T11:25:18.980Z,17.05
2022-09-23T11:28:37.701Z,17.18
2022-09-23T11:31:49.937Z,17.37
2022-09-23T11:35:04.384Z,17.38
2022-09-23T11:38:12.365Z,17.37
2022-09-23T11:41:19.547Z,17.30
2022-09-23T11:44:27.983Z,17.21
2022-09-23T11:47:39.749Z,17.19
2022-09-23T11:50:50.354Z,17.21
2022-09-23T11:53:59.709Z,17.32
2022-09-23T11:57:07.731Z,17.44
2022-09-23T12:00:15.996Z,17.59
2022-09-23T12:03:35.873Z,17.87
2022-09-23T12:06:46.142Z,18.21
2022-09-23T12:09:58.409Z,18.56
2022-09-23T12:13:08.531Z,18.96
2022-09-23T12:16:31.192Z,19.26
2022-09-23T12:19:51.656Z,19.53
2022-09-23T12:23:04.144Z,19.58
2022-09-23T12:26:17.273Z,19.46
2022-09-23T12:29:25.631Z,19.35
2022-09-23T12:32:31.384Z,19.35
2022-09-23T12:35:40.067Z,19.59
2022-09-23T12:38:51.361Z,19.85
2022-09-23T12:41:58.717Z,20.14
2022-09-23T12:45:21.387Z,20.24
2022-09-23T12:48:44.416Z,20.12
2022-09-23T12:52:05.028Z,20.14
2022-09-23T12:55:24.375Z,20.24
2022-09-23T12:58:46.275Z,20.22
2022-09-23T13:01:52.270Z,20.09
2022-09-23T13:05:28.631Z,20.00
2022-09-23T13:08:37.606Z,19.94
2022-09-23T13:11:53.147Z,19.96
2022-09-23T13:15:03.557Z,20.04
2022-09-23T13:18:50.698Z,20.21
2022-09-23T13:22:09.179Z,20.19
2022-09-23T13:25:23.271Z,20.27
2022-09-23T13:28:31.026Z,20.25
2022-09-23T13:31:36.499Z,20.30
2022-09-23T13:34:44.240Z,20.14
2022-09-23T13:37:50.560Z,20.02
2022-09-23T13:40:59.822Z,19.99
2022-09-23T13:44:15.319Z,19.96
2022-09-23T13:47:21.063Z,19.97
2022-09-23T13:50:32.882Z,19.90
2022-09-23T13:53:41.352Z,19.84
2022-09-23T13:56:49.510Z,19.93
2022-09-23T13:59:54.887Z,20.06
2022-09-23T14:03:00.276Z,20.18
2022-09-23T14:06:08.538Z,20.12
2022-09-23T14:09:14.648Z,19.96
2022-09-23T14:12:22.433Z,19.79
2022-09-23T14:15:27.929Z,19.77
2022-09-23T14:18:35.809Z,19.88
2022-09-23T14:21:41.367Z,19.79
2022-09-23T14:24:47.309Z,19.59
2022-09-23T14:27:54.553Z,19.45
2022-09-23T14:31:03.702Z,19.32
2022-09-23T14:34:35.416Z,19.16
2022-09-23T14:38:01.510Z,19.01
2022-09-23T14:41:18.176Z,18.84
2022-09-23T14:44:25.144Z,18.75
2022-09-23T14:47:31.144Z,18.65
2022-09-23T14:50:48.487Z,18.61
2022-09-23T14:53:53.813Z,18.61
2022-09-23T14:56:59.170Z,18.61
2022-09-23T15:00:10.112Z,18.62
2022-09-23T15:03:16.337Z,18.60
2022-09-23T15:06:24.583Z,18.59
2022-09-23T15:09:31.521Z,18.58
2022-09-23T15:12:40.090Z,18.54
2022-09-23T15:15:45.565Z,18.48
2022-09-23T15:18:54.912Z,18.44
2022-09-23T15:22:02.896Z,18.36
2022-09-23T15:25:16.559Z,18.28
2022-09-23T15:28:23.732Z,18.21
2022-09-23T15:31:29.114Z,18.14
2022-09-23T15:34:34.345Z,18.12
2022-09-23T15:37:40.368Z,18.11
2022-09-23T15:40:45.687Z,18.19
2022-09-23T15:43:51.361Z,18.41
2022-09-23T15:46:59.228Z,18.70
2022-09-23T15:50:07.203Z,19.00
2022-09-23T15:53:15.921Z,19.24
2022-09-23T15:56:21.108Z,19.39
2022-09-23T15:59:26.368Z,19.49
2022-09-23T16:02:33.424Z,19.61
2022-09-23T16:05:40.138Z,19.80
2022-09-23T16:08:45.164Z,19.83
2022-09-23T16:11:52.026Z,19.71
2022-09-23T16:14:57.281Z,19.48
2022-09-23T16:18:02.572Z,19.21
2022-09-23T16:21:10.746Z,18.85
2022-09-23T16:24:21.705Z,18.47
2022-09-23T16:27:30.889Z,18.08
2022-09-23T16:30:35.977Z,17.69
2022-09-23T16:33:41.206Z,17.28
2022-09-23T16:36:47.613Z,16.89
2022-09-23T16:39:52.771Z,16.52
2022-09-23T16:42:58.432Z,16.15
2022-09-23T16:46:03.805Z,15.77
2022-09-23T16:49:12.239Z,15.41
2022-09-23T16:52:17.452Z,15.05
2022-09-23T16:55:25.712Z,14.73
2022-09-23T16:58:30.949Z,14.41
2022-09-23T17:01:54.128Z,14.11
2022-09-23T17:05:01.561Z,13.79
2022-09-23T17:08:08.751Z,13.51
2022-09-23T17:11:14.448Z,13.24
2022-09-23T17:14:21.203Z,12.99
2022-09-23T17:17:28.540Z,12.78
2022-09-23T17:20:34.446Z,12.55
2022-09-23T17:23:39.744Z,12.31
2022-09-23T17:26:49.367Z,12.09
2022-09-23T17:29:58.054Z,11.92
2022-09-23T17:33:03.644Z,11.79
2022-09-23T17:36:10.507Z,11.66
2022-09-23T17:39:18.856Z,11.55
2022-09-23T17:42:24.354Z,11.43
2022-09-23T17:45:30.221Z,11.35
2022-09-23T17:48:37.144Z,11.24
2022-09-23T17:51:42.681Z,11.14
2022-09-23T17:54:55.122Z,11.04
2022-09-23T17:58:00.606Z,10.93
2022-09-23T18:01:06.547Z,10.83
2022-09-23T18:04:11.888Z,10.74
2022-09-23T18:07:17.356Z,10.68
2022-09-23T18:10:23.279Z,10.63
2022-09-23T18:13:28.695Z,10.57
2022-09-23T18:16:35.768Z,10.52
2022-09-23T18:19:41.144Z,10.48
2022-09-23T18:22:46.655Z,10.43
2022-09-23T18:25:52.096Z,10.41
2022-09-23T18:29:01.556Z,10.39
2022-09-23T18:32:09.976Z,10.39
2022-09-23T18:35:17.827Z,10.39
2022-09-23T18:38:23.219Z,10.42
2022-09-23T18:41:28.727Z,10.44
2022-09-23T18:44:34.121Z,10.48
2022-09-23T18:47:56.600Z,10.51
2022-09-23T18:51:01.825Z,10.52
2022-09-23T18:54:08.067Z,10.51
2022-09-23T18:57:16.001Z,10.50
2022-09-23T19:00:21.354Z,10.50
2022-09-23T19:03:26.840Z,10.51
2022-09-23T19:06:32.953Z,10.99
2022-09-23T19:09:38.421Z,12.38
2022-09-23T19:12:43.807Z,13.24
2022-09-23T19:15:49.243Z,13.71
2022-09-23T19:18:55.166Z,14.12
2022-09-23T19:22:00.839Z,14.43
2022-09-23T19:25:06.935Z,14.67
2022-09-23T19:28:12.338Z,14.91
2022-09-23T19:31:18.345Z,15.11
2022-09-23T19:34:26.102Z,15.33
2022-09-23T19:37:31.639Z,15.48
2022-09-23T19:40:37.550Z,15.08
2022-09-23T19:43:42.821Z,14.36
2022-09-23T19:46:53.487Z,13.81
2022-09-23T19:50:01.239Z,13.39
2022-09-23T19:53:07.118Z,13.05
2022-09-23T19:56:14.446Z,12.77
2022-09-23T19:59:19.765Z,12.53
2022-09-23T20:02:25.460Z,12.29
2022-09-23T20:05:30.808Z,12.06
2022-09-23T20:08:37.806Z,11.84
2022-09-23T20:11:44.292Z,11.64
2022-09-23T20:14:51.451Z,11.45
2022-09-23T20:17:56.834Z,11.28
2022-09-23T20:21:02.144Z,11.11
2022-09-23T20:24:09.555Z,10.94
2022-09-23T20:27:15.630Z,10.78
2022-09-23T20:30:21.398Z,10.61
2022-09-23T20:33:26.754Z,10.44
2022-09-23T20:36:32.207Z,10.27
2022-09-23T20:39:37.560Z,10.10
2022-09-23T20:42:42.864Z,9.94
2022-09-23T20:45:52.277Z,9.88
2022-09-23T20:48:57.896Z,10.90
2022-09-23T20:52:03.856Z,11.98
2022-09-23T20:55:10.822Z,12.65
2022-09-23T20:58:19.171Z,13.17
2022-09-23T21:01:24.545Z,13.63
2022-09-23T21:04:30.047Z,14.00
2022-09-23T21:07:35.342Z,14.37
2022-09-23T21:10:42.360Z,14.72
2022-09-23T21:13:48.407Z,15.02
2022-09-23T21:16:54.802Z,15.21
2022-09-23T21:20:01.489Z,15.34
2022-09-23T21:23:07.483Z,15.41
2022-09-23T21:26:13.756Z,15.40
2022-09-23T21:29:19.260Z,14.62
2022-09-23T21:32:24.373Z,13.77
2022-09-23T21:35:29.618Z,13.15
2022-09-23T21:38:36.509Z,12.68
2022-09-23T21:41:42.317Z,12.27
2022-09-23T21:44:47.706Z,11.93
2022-09-23T21:47:54.255Z,11.62
2022-09-23T21:51:00.603Z,11.36
2022-09-23T21:54:07.281Z,11.13
2022-09-23T21:57:13.973Z,10.92
2022-09-23T22:00:19.321Z,10.75
2022-09-23T22:03:24.652Z,10.59
2022-09-23T22:06:30.560Z,10.47
2022-09-23T22:09:36.070Z,10.67
2022-09-23T22:12:41.433Z,11.31
2022-09-23T22:15:46.915Z,12.03
2022-09-23T22:18:55.239Z,13.16
2022-09-23T22:22:00.552Z,13.94
2022-09-23T22:25:06.357Z,14.24
2022-09-23T22:28:29.426Z,14.41
2022-09-23T22:31:52.681Z,14.55
2022-09-23T22:34:58.259Z,14.65
2022-09-23T22:38:03.551Z,14.71
2022-09-23T22:41:09.113Z,15.07
2022-09-23T22:44:14.443Z,15.36
2022-09-23T22:47:20.334Z,14.65
2022-09-23T22:50:25.615Z,13.81
2022-09-23T22:53:30.925Z,13.19
2022-09-23T22:56:36.368Z,12.72
2022-09-23T22:59:43.805Z,12.32
2022-09-23T23:02:49.066Z,12.00
2022-09-23T23:05:57.473Z,11.71
2022-09-23T23:09:06.977Z,11.46
2022-09-23T23:12:12.492Z,11.25
2022-09-23T23:15:17.845Z,11.07
2022-09-23T23:18:27.062Z,10.92
2022-09-23T23:21:32.817Z,10.79
2022-09-23T23:24:38.179Z,10.68
2022-09-23T23:27:43.611Z,10.59
2022-09-23T23:30:49.068Z,10.50
2022-09-23T23:33:54.757Z,10.42
2022-09-23T23:37:00.109Z,10.45
2022-09-23T23:40:05.944Z,11.07
2022-09-23T23:43:11.492Z,11.78
2022-09-23T23:46:18.344Z,12.79
2022-09-23T23:49:23.734Z,13.50
2022-09-23T23:52:28.905Z,13.90
2022-09-23T23:55:38.205Z,14.33
2022-09-23T23:58:43.872Z,14.72
